Friday, October 20, 2017, 9:18 PM EDT
Back to Local

KEWB, New Bedford Regional Airport

Location: New Bedford, MA, United States Lat: 41.683
Local Time: 9:18 PM EDT ( 1:18 GMT) Lon: -70.967
Time Zone: US/Eastern Elev: 78 ft

Show me the last for .
Show Decoded

2017-10-20 20:53 METAR KEWB 210053Z 29004KT 10SM CLR 13/04 A3009 RMK AO2 SLP188 T01330044 =
2017-10-20 19:53 METAR KEWB 202353Z 29005KT 10SM CLR 14/04 A3006 RMK AO2 SLP180 T01390044 10211
                 20133 53017 =
2017-10-20 18:53 METAR KEWB 202253Z 29003KT 10SM CLR 14/06 A3005 RMK AO2 SLP175 T01390061 =
2017-10-20 17:53 METAR KEWB 202153Z 29003KT 10SM CLR 16/07 A3003 RMK AO2 SLP169 T01610067 =
2017-10-20 16:53 METAR KEWB 202053Z 30005KT 10SM CLR 19/05 A3002 RMK AO2 SLP163 T01940050 53004 =
2017-10-20 15:53 METAR KEWB 201953Z 31007KT 290V360 10SM CLR 21/06 A3001 RMK AO2 SLP160 T02110056
                 =
2017-10-20 14:53 METAR KEWB 201853Z 30008KT 10SM CLR 21/06 A3000 RMK AO2 SLP157 T02060056 =
2017-10-20 13:53 METAR KEWB 201753Z 29005KT 10SM CLR 21/06 A3000 RMK AO2 SLP160 T02110061 10211
                 20139 58016 =
2017-10-20 12:53 METAR KEWB 201653Z 31007KT 280V350 10SM CLR 21/06 A3002 RMK AO2 SLP165 T02060061
                 =
2017-10-20 11:53 METAR KEWB 201553Z VRB06G14KT 10SM CLR 19/06 A3004 RMK AO2 SLP172 T01940061 =
2017-10-20 10:53 METAR KEWB 201453Z 30011G17KT 10SM CLR 18/07 A3005 RMK AO2 SLP176 T01830067
                 50007 =
2017-10-20 09:53 METAR KEWB 201353Z 31006G16KT 10SM CLR 17/07 A3006 RMK AO2 SLP179 T01670072 =
2017-10-20 08:53 METAR KEWB 201253Z 30010G17KT 10SM CLR 16/07 A3005 RMK AO2 SLP175 T01560072 =
2017-10-20 07:53 METAR KEWB 201153Z 27009KT 10SM CLR 14/08 A3003 RMK AO2 SLP169 T01390078 10156
                 20122 53010 =
2017-10-20 06:53 METAR KEWB 201053Z 28008KT 10SM CLR 13/08 A3001 RMK AO2 SLP163 T01330078 =
2017-10-20 05:53 METAR KEWB 200953Z 28008KT 10SM CLR 14/08 A3001 RMK AO2 SLP161 T01390083 =
2017-10-20 04:53 METAR KEWB 200853Z 27005KT 10SM CLR 13/10 A3000 RMK AO2 SLP158 T01330100 55002 =
2017-10-20 03:53 METAR KEWB 200753Z 26009KT 10SM CLR 14/11 A3000 RMK AO2 SLP157 T01440111 =
2017-10-20 02:53 METAR KEWB 200653Z 26008KT 10SM CLR 16/12 A2999 RMK AO2 SLP156 T01560117 =
2017-10-20 01:53 METAR KEWB 200553Z 25008KT 10SM CLR 15/12 A3001 RMK AO2 SLP160 T01500122 10156
                 20150 57009 =
2017-10-20 00:53 METAR KEWB 200453Z 25011KT 10SM CLR 16/13 A3001 RMK AO2 SLP163 T01560128
                 402060056 =
2017-10-19 23:53 METAR KEWB 200353Z 24010KT 10SM CLR 16/13 A3003 RMK AO2 SLP167 T01560128 =
2017-10-19 22:53 METAR KEWB 200253Z 23010KT 10SM CLR 15/13 A3003 RMK AO2 SLP170 T01500128 56005 =
2017-10-19 21:53 METAR KEWB 200153Z 23009KT 10SM CLR 15/13 A3004 RMK AO2 SLP173 T01500128 =

Support USWX by starting your Amazon purchase here.